Time;durP1;ratioP1;P1;durP2;ratioP2;P2;SDS_P1;SDS_P2;PMS_P1;PMS_P2;Temp;Humidity;BMP_temperature;BMP_pressure;BME280_temperature;BME280_humidity;BME280_pressure;Samples;Min_cycle;Max_cycle;Signal;HPM_P1;HPM_P2
2020/12/29 00:01:05;;;;;;;0.22;0.22;;;5.30;97.40;;;;;;4147248;28;20056;-87
2020/12/29 00:03:06;;;;;;;0.15;0.15;;;5.30;97.30;;;;;;4132107;28;20089;-87
2020/12/29 00:05:08;;;;;;;0.40;0.40;;;5.30;97.40;;;;;;4160398;28;20050;-89
2020/12/29 00:07:11;;;;;;;0.10;0.10;;;5.30;97.50;;;;;;4164552;28;20132;-87
2020/12/29 00:09:13;;;;;;;0.10;0.10;;;5.30;97.60;;;;;;4148340;28;20045;-88
2020/12/29 00:11:14;;;;;;;0.10;0.10;;;5.20;97.60;;;;;;4148563;28;20061;-88
2020/12/29 00:13:16;;;;;;;0.28;0.28;;;5.20;97.60;;;;;;4146371;28;20066;-87
2020/12/29 00:15:17;;;;;;;0.10;0.10;;;5.20;97.60;;;;;;4132205;28;20066;-87
2020/12/29 00:17:19;;;;;;;0.25;0.25;;;5.20;97.70;;;;;;4147751;28;20128;-87
2020/12/29 00:19:21;;;;;;;0.20;0.20;;;5.20;97.80;;;;;;4131945;28;20133;-87
2020/12/29 00:21:23;;;;;;;0.10;0.10;;;5.20;97.80;;;;;;4155411;28;20069;-87
2020/12/29 00:23:24;;;;;;;0.30;0.30;;;5.20;97.70;;;;;;4162109;28;20132;-87
2020/12/29 00:25:26;;;;;;;0.40;0.40;;;5.30;97.60;;;;;;4173445;28;20127;-87
2020/12/29 00:27:27;;;;;;;0.30;0.20;;;5.30;97.40;;;;;;4132468;28;20062;-87
2020/12/29 00:29:31;;;;;;;0.10;0.10;;;5.30;97.30;;;;;;4179623;28;20123;-88
2020/12/29 00:31:35;;;;;;;0.10;0.10;;;5.30;97.30;;;;;;4170124;28;20057;-87
2020/12/29 00:33:37;;;;;;;0.15;0.15;;;5.40;97.30;;;;;;4166305;28;20140;-88
2020/12/29 00:35:38;;;;;;;0.20;0.20;;;5.30;97.30;;;;;;4175693;28;20056;-87
2020/12/29 00:37:39;;;;;;;0.20;0.20;;;5.40;97.10;;;;;;4180852;28;20148;-87
2020/12/29 00:39:41;;;;;;;0.20;0.20;;;5.40;97.00;;;;;;4147362;28;20129;-88
2020/12/29 00:41:43;;;;;;;0.10;0.10;;;5.30;97.20;;;;;;4148060;28;20057;-88
2020/12/29 00:43:44;;;;;;;0.10;0.10;;;5.30;97.10;;;;;;4176486;28;20060;-88
2020/12/29 00:45:46;;;;;;;0.65;0.20;;;5.30;97.20;;;;;;4176466;28;20049;-87
2020/12/29 00:47:47;;;;;;;0.40;0.40;;;5.30;97.60;;;;;;4180701;28;20049;-87
2020/12/29 00:49:48;;;;;;;0.20;0.20;;;5.30;97.40;;;;;;4152120;28;20053;-88
2020/12/29 00:51:52;;;;;;;0.13;0.13;;;5.30;97.40;;;;;;4144019;28;20046;-86
2020/12/29 00:53:54;;;;;;;0.20;0.20;;;5.20;97.40;;;;;;4144920;28;20076;-87
2020/12/29 00:55:55;;;;;;;0.20;0.20;;;5.20;97.60;;;;;;4146554;28;20092;-86
2020/12/29 00:57:56;;;;;;;0.20;0.20;;;5.20;97.50;;;;;;4137064;28;20145;-87
2020/12/29 00:59:57;;;;;;;0.10;0.10;;;5.20;97.70;;;;;;4147284;28;20063;-87
2020/12/29 01:01:59;;;;;;;0.20;0.20;;;5.10;97.90;;;;;;4163739;28;20136;-87
2020/12/29 01:04:00;;;;;;;0.20;0.20;;;5.20;97.50;;;;;;4163456;28;20049;-87
2020/12/29 01:06:02;;;;;;;0.38;0.38;;;5.20;97.80;;;;;;4147453;28;20465;-86
2020/12/29 01:08:03;;;;;;;0.20;0.20;;;5.20;97.80;;;;;;4161820;28;20059;-87
2020/12/29 01:10:05;;;;;;;0.20;0.20;;;5.10;98.00;;;;;;4166074;28;20132;-87
2020/12/29 01:12:06;;;;;;;0.10;0.10;;;5.20;97.90;;;;;;4162545;28;20516;-90
2020/12/29 01:14:07;;;;;;;0.10;0.10;;;5.20;97.90;;;;;;4146988;28;20056;-87
2020/12/29 01:16:09;;;;;;;0.20;0.20;;;5.10;98.00;;;;;;4174062;28;20072;-87
2020/12/29 01:18:10;;;;;;;0.80;0.25;;;5.20;98.10;;;;;;4179619;28;20052;-87
2020/12/29 01:20:12;;;;;;;0.17;0.17;;;5.20;98.00;;;;;;4168660;28;20050;-87
2020/12/29 01:22:14;;;;;;;0.20;0.20;;;5.10;98.20;;;;;;4142898;28;20051;-88
2020/12/29 01:24:16;;;;;;;0.10;0.10;;;5.10;98.20;;;;;;4147055;28;20054;-87
2020/12/29 01:26:25;;;;;;;0.10;0.10;;;5.10;98.10;;;;;;4174237;28;20567;-87
2020/12/29 01:28:26;;;;;;;0.35;0.35;;;5.10;98.00;;;;;;4179105;28;20045;-89
2020/12/29 01:30:27;;;;;;;0.30;0.30;;;5.20;98.20;;;;;;4153197;28;20503;-87
2020/12/29 01:32:29;;;;;;;0.10;0.10;;;5.20;98.00;;;;;;4179377;28;20056;-88
2020/12/29 01:34:30;;;;;;;0.40;0.20;;;5.20;97.90;;;;;;4193340;28;20041;-87
2020/12/29 01:36:32;;;;;;;0.10;0.10;;;5.20;98.10;;;;;;4166947;28;20064;-86
2020/12/29 01:38:34;;;;;;;0.20;0.20;;;5.20;98.00;;;;;;4168933;28;20132;-86
2020/12/29 01:40:36;;;;;;;0.22;0.22;;;5.20;97.90;;;;;;4143064;28;20088;-86
2020/12/29 01:42:37;;;;;;;0.15;0.15;;;5.10;98.10;;;;;;4172003;28;20139;-87
2020/12/29 01:44:38;;;;;;;0.10;0.10;;;5.20;98.20;;;;;;4184796;28;20045;-86
2020/12/29 01:46:44;;;;;;;0.20;0.20;;;5.10;98.10;;;;;;4152312;28;20054;-87
2020/12/29 01:48:45;;;;;;;0.10;0.10;;;5.10;98.20;;;;;;4166367;28;20056;-88
2020/12/29 01:50:47;;;;;;;0.20;0.20;;;5.20;98.20;;;;;;4152824;28;20058;-87
2020/12/29 01:53:00;;;;;;;0.10;0.10;;;5.10;98.20;;;;;;4184355;28;20043;-88
2020/12/29 01:55:02;;;;;;;0.10;0.10;;;5.10;98.20;;;;;;4166664;28;20050;-87
2020/12/29 01:57:03;;;;;;;0.10;0.10;;;5.20;98.20;;;;;;4170450;28;20131;-87
2020/12/29 01:59:09;;;;;;;2.72;0.25;;;5.20;98.30;;;;;;4150892;28;20064;-87
2020/12/29 02:01:10;;;;;;;0.25;0.25;;;5.20;98.20;;;;;;4144517;28;20049;-88
2020/12/29 02:03:13;;;;;;;0.10;0.10;;;5.20;98.20;;;;;;4152610;28;20057;-88
2020/12/29 02:05:15;;;;;;;0.10;0.10;;;5.20;98.30;;;;;;4166380;28;20511;-88
2020/12/29 02:07:16;;;;;;;0.10;0.10;;;5.10;98.30;;;;;;4182819;28;20079;-87
2020/12/29 02:09:18;;;;;;;0.13;0.13;;;5.10;98.50;;;;;;4152320;28;20049;-90
2020/12/29 02:11:19;;;;;;;0.10;0.10;;;5.20;98.40;;;;;;4168967;28;20058;-89
2020/12/29 02:13:21;;;;;;;0.20;0.20;;;5.10;98.60;;;;;;4143950;28;20450;-87
2020/12/29 02:15:23;;;;;;;0.10;0.10;;;5.10;98.60;;;;;;4170480;28;20085;-88
2020/12/29 02:17:24;;;;;;;0.10;0.10;;;5.10;98.60;;;;;;4185470;28;20059;-88
2020/12/29 02:19:26;;;;;;;0.20;0.20;;;5.10;98.60;;;;;;4176532;28;20063;-88
2020/12/29 02:21:31;;;;;;;0.10;0.10;;;5.10;98.70;;;;;;4151573;28;20057;-87
2020/12/29 02:23:32;;;;;;;0.55;0.55;;;5.20;98.70;;;;;;4174946;28;20482;-87
2020/12/29 02:25:34;;;;;;;0.10;0.10;;;5.10;98.80;;;;;;4176523;28;20057;-88
2020/12/29 02:27:48;;;;;;;0.10;0.10;;;5.20;98.80;;;;;;4152222;28;20042;-87
2020/12/29 02:29:49;;;;;;;0.10;0.10;;;5.10;98.90;;;;;;4184829;28;20059;-88
2020/12/29 02:31:50;;;;;;;0.17;0.17;;;5.10;98.80;;;;;;4184297;28;20041;-87
2020/12/29 02:33:52;;;;;;;0.10;0.10;;;5.10;98.90;;;;;;4182049;28;20045;-87
2020/12/29 02:35:55;;;;;;;0.20;0.20;;;5.10;99.10;;;;;;4150229;28;20081;-86
2020/12/29 02:37:56;;;;;;;0.17;0.17;;;5.10;98.90;;;;;;4152091;28;20045;-87
2020/12/29 02:39:57;;;;;;;0.10;0.10;;;5.10;98.90;;;;;;4150314;28;20046;-86
2020/12/29 02:41:59;;;;;;;0.20;0.20;;;5.10;98.90;;;;;;4149330;28;20046;-87
2020/12/29 02:44:00;;;;;;;0.10;0.10;;;5.10;98.90;;;;;;4173944;28;20136;-87
2020/12/29 02:46:01;;;;;;;0.20;0.20;;;5.10;98.90;;;;;;4148485;28;20054;-88
2020/12/29 02:48:03;;;;;;;0.20;0.20;;;5.10;98.90;;;;;;4182210;28;20103;-85
2020/12/29 02:50:05;;;;;;;0.10;0.10;;;5.10;99.10;;;;;;4169328;28;20069;-87
2020/12/29 02:52:07;;;;;;;0.20;0.20;;;5.10;98.90;;;;;;4180273;28;20060;-86
2020/12/29 02:54:11;;;;;;;0.22;0.22;;;5.10;98.80;;;;;;4176159;28;20056;-86
2020/12/29 02:56:18;;;;;;;0.10;0.10;;;5.10;98.90;;;;;;4182201;28;20087;-87
2020/12/29 02:58:19;;;;;;;0.43;0.30;;;5.10;98.90;;;;;;4180620;28;20127;-87
2020/12/29 03:00:21;;;;;;;0.10;0.10;;;5.10;99.00;;;;;;4181119;28;20053;-86
2020/12/29 03:02:23;;;;;;;0.10;0.10;;;5.10;99.10;;;;;;4175113;28;20063;-88
2020/12/29 03:04:24;;;;;;;0.10;0.10;;;5.10;99.00;;;;;;4158359;28;20048;-86
2020/12/29 03:06:25;;;;;;;0.10;0.10;;;5.10;98.90;;;;;;4149345;28;20060;-90
2020/12/29 03:08:27;;;;;;;0.13;0.13;;;5.10;99.00;;;;;;4171774;28;20049;-87
2020/12/29 03:10:28;;;;;;;0.10;0.10;;;5.10;99.00;;;;;;4168338;28;20050;-87
2020/12/29 03:12:29;;;;;;;0.10;0.10;;;5.10;99.00;;;;;;4165208;28;20049;-89
2020/12/29 03:14:30;;;;;;;0.10;0.10;;;5.10;98.90;;;;;;4164845;28;20053;-86
2020/12/29 03:16:32;;;;;;;0.10;0.10;;;5.10;98.90;;;;;;4139888;28;20058;-87
2020/12/29 03:18:33;;;;;;;0.32;0.30;;;5.10;98.90;;;;;;4163537;28;20128;-88
2020/12/29 03:20:36;;;;;;;0.20;0.20;;;5.10;98.90;;;;;;4181583;28;20144;-86
2020/12/29 03:22:38;;;;;;;0.20;0.20;;;5.20;98.80;;;;;;4164047;28;20049;-86
2020/12/29 03:24:39;;;;;;;0.17;0.17;;;5.20;98.80;;;;;;4148604;28;20092;-86
2020/12/29 03:26:40;;;;;;;0.10;0.10;;;5.20;98.90;;;;;;4193674;28;20048;-87
2020/12/29 03:28:42;;;;;;;0.20;0.20;;;5.20;98.80;;;;;;4148417;28;20046;-86
2020/12/29 03:30:43;;;;;;;0.10;0.10;;;5.20;98.90;;;;;;4148324;28;20050;-87
2020/12/29 03:32:44;;;;;;;0.35;0.35;;;5.20;98.70;;;;;;4148861;28;20153;-87
2020/12/29 03:34:45;;;;;;;0.10;0.10;;;5.20;98.90;;;;;;4173025;28;20051;-86
2020/12/29 03:36:47;;;;;;;0.50;0.15;;;5.20;98.80;;;;;;4150967;28;20084;-87
2020/12/29 03:38:48;;;;;;;0.20;0.20;;;5.20;98.80;;;;;;4165071;28;20057;-90
2020/12/29 03:40:50;;;;;;;1.33;0.40;;;5.30;98.70;;;;;;4148526;28;20049;-87
2020/12/29 03:42:51;;;;;;;0.22;0.20;;;5.30;98.70;;;;;;4150500;28;20046;-87
2020/12/29 03:44:52;;;;;;;0.10;0.10;;;5.30;98.70;;;;;;4175931;28;20140;-87
2020/12/29 03:46:53;;;;;;;0.17;0.17;;;5.30;98.50;;;;;;4175674;28;20049;-87
2020/12/29 03:48:55;;;;;;;0.20;0.20;;;5.30;98.50;;;;;;4180010;28;20051;-86
2020/12/29 03:50:56;;;;;;;0.10;0.10;;;5.30;98.50;;;;;;4176464;28;20053;-86
2020/12/29 03:52:57;;;;;;;0.13;0.13;;;5.30;98.40;;;;;;4185634;28;20045;-86
2020/12/29 03:54:59;;;;;;;0.47;0.47;;;5.30;98.40;;;;;;4183106;28;20048;-86
2020/12/29 03:57:01;;;;;;;0.13;0.13;;;5.30;98.40;;;;;;4182673;28;20056;-87
2020/12/29 03:59:02;;;;;;;0.10;0.10;;;5.30;98.40;;;;;;4163411;28;20049;-86
2020/12/29 04:01:04;;;;;;;0.13;0.13;;;5.30;98.40;;;;;;4166961;28;20076;-86
2020/12/29 04:03:05;;;;;;;0.10;0.10;;;5.30;98.30;;;;;;4163541;28;20084;-86
2020/12/29 04:05:08;;;;;;;0.20;0.20;;;5.30;98.30;;;;;;4163499;28;20619;-87
2020/12/29 04:07:09;;;;;;;0.10;0.10;;;5.30;98.20;;;;;;4171851;28;20425;-87
2020/12/29 04:09:11;;;;;;;0.10;0.10;;;5.30;98.20;;;;;;4180904;28;20053;-86
2020/12/29 04:11:12;;;;;;;0.10;0.10;;;5.30;98.20;;;;;;4173423;28;20049;-86
2020/12/29 04:13:26;;;;;;;0.10;0.10;;;5.30;98.10;;;;;;4174187;28;20143;-87
2020/12/29 04:15:27;;;;;;;0.13;0.13;;;5.30;98.00;;;;;;4163642;28;20060;-86
2020/12/29 04:17:35;;;;;;;0.20;0.20;;;5.40;98.00;;;;;;4170177;28;20049;-86
2020/12/29 04:19:36;;;;;;;0.10;0.10;;;5.40;97.80;;;;;;4142798;28;20081;-88
2020/12/29 04:21:38;;;;;;;0.22;0.22;;;5.40;97.80;;;;;;4181911;28;20049;-88
2020/12/29 04:23:39;;;;;;;0.10;0.10;;;5.40;97.80;;;;;;4147897;28;20054;-86
2020/12/29 04:25:40;;;;;;;0.10;0.10;;;5.40;97.80;;;;;;4161574;28;20045;-87
2020/12/29 04:27:42;;;;;;;0.10;0.10;;;5.40;97.80;;;;;;4167187;28;20049;-87
2020/12/29 04:29:43;;;;;;;0.10;0.10;;;5.40;97.70;;;;;;4197296;28;20112;-86
2020/12/29 04:31:47;;;;;;;0.20;0.20;;;5.40;97.70;;;;;;4160036;28;20143;-87
2020/12/29 04:33:48;;;;;;;0.70;0.30;;;5.40;97.70;;;;;;4168759;28;20163;-86
2020/12/29 04:35:50;;;;;;;0.10;0.10;;;5.40;97.70;;;;;;4180550;28;20049;-86
2020/12/29 04:37:53;;;;;;;0.80;0.80;;;5.40;97.70;;;;;;4162238;28;20132;-86
2020/12/29 04:39:55;;;;;;;0.20;0.20;;;5.40;97.80;;;;;;4142360;28;20064;-87
2020/12/29 04:42:01;;;;;;;0.40;0.40;;;5.40;97.80;;;;;;4177961;28;20076;-86
2020/12/29 04:44:03;;;;;;;0.80;0.38;;;5.30;97.90;;;;;;4177573;28;20124;-86
2020/12/29 04:46:04;;;;;;;0.10;0.10;;;5.40;97.80;;;;;;4145343;28;20056;-86
2020/12/29 04:48:05;;;;;;;0.10;0.10;;;5.40;97.70;;;;;;4147937;28;20140;-86
2020/12/29 04:50:07;;;;;;;0.17;0.10;;;5.40;97.70;;;;;;4165023;28;20041;-85
2020/12/29 04:52:08;;;;;;;0.77;0.47;;;5.40;97.60;;;;;;4178092;28;20071;-86
2020/12/29 04:54:10;;;;;;;0.20;0.20;;;5.40;97.70;;;;;;4180573;28;20071;-86
2020/12/29 04:56:11;;;;;;;0.20;0.15;;;5.40;97.70;;;;;;4163307;28;20506;-86
2020/12/29 04:58:14;;;;;;;0.20;0.20;;;5.40;97.50;;;;;;4153245;28;20056;-86
2020/12/29 05:00:15;;;;;;;0.10;0.10;;;5.40;97.60;;;;;;4147764;28;20076;-88
2020/12/29 05:02:16;;;;;;;0.17;0.17;;;5.40;97.60;;;;;;4185534;28;20406;-87
2020/12/29 05:04:18;;;;;;;0.10;0.10;;;5.40;97.50;;;;;;4185990;28;20132;-89
2020/12/29 05:06:22;;;;;;;0.20;0.20;;;5.50;97.50;;;;;;4164172;28;20494;-86
2020/12/29 05:08:24;;;;;;;0.10;0.10;;;5.40;97.60;;;;;;4181177;28;20425;-86
2020/12/29 05:10:25;;;;;;;0.75;0.75;;;5.50;97.50;;;;;;4163391;28;20061;-87
2020/12/29 05:12:26;;;;;;;0.10;0.10;;;5.50;97.50;;;;;;4164253;28;20457;-86
2020/12/29 05:14:28;;;;;;;0.10;0.10;;;5.50;97.50;;;;;;4161118;28;20428;-86
2020/12/29 05:16:29;;;;;;;0.10;0.10;;;5.50;97.60;;;;;;4161764;28;20140;-86
2020/12/29 05:18:31;;;;;;;0.30;0.30;;;5.40;97.60;;;;;;4162899;28;20065;-86
2020/12/29 05:20:34;;;;;;;0.10;0.10;;;5.50;97.60;;;;;;4145244;28;20461;-86
2020/12/29 05:22:39;;;;;;;0.10;0.10;;;5.50;97.60;;;;;;4154559;28;20502;-86
2020/12/29 05:24:45;;;;;;;0.10;0.10;;;5.50;97.60;;;;;;4153157;28;20060;-86
2020/12/29 05:26:59;;;;;;;0.88;0.88;;;5.50;97.60;;;;;;4131664;28;20431;-86
2020/12/29 05:29:01;;;;;;;0.20;0.20;;;5.50;97.60;;;;;;4144943;28;20050;-85
2020/12/29 05:31:03;;;;;;;0.10;0.10;;;5.50;97.60;;;;;;4131245;28;20153;-86
2020/12/29 05:33:12;;;;;;;0.20;0.20;;;5.50;97.60;;;;;;4179449;28;20061;-88
2020/12/29 05:35:14;;;;;;;0.10;0.10;;;5.40;97.50;;;;;;4147063;28;20048;-85
2020/12/29 05:37:17;;;;;;;0.20;0.20;;;5.40;97.60;;;;;;4120362;28;20209;-87
2020/12/29 05:39:19;;;;;;;0.10;0.10;;;5.40;97.70;;;;;;4130670;28;20081;-86
2020/12/29 05:41:21;;;;;;;0.10;0.10;;;5.40;97.70;;;;;;4162550;28;20479;-86
2020/12/29 05:43:32;;;;;;;3.03;0.50;;;5.40;97.70;;;;;;4138823;28;20156;-87
2020/12/29 05:45:36;;;;;;;0.10;0.10;;;5.40;97.70;;;;;;4129876;28;20050;-86
2020/12/29 05:47:38;;;;;;;0.17;0.17;;;5.40;97.80;;;;;;4163375;28;20049;-86
2020/12/29 05:49:39;;;;;;;0.20;0.20;;;5.40;97.80;;;;;;4164419;28;20083;-90
2020/12/29 05:51:40;;;;;;;0.10;0.10;;;5.40;97.80;;;;;;4138599;28;20133;-90
2020/12/29 05:53:42;;;;;;;0.10;0.10;;;5.40;97.70;;;;;;4148774;28;20513;-89
2020/12/29 05:55:44;;;;;;;0.10;0.10;;;5.50;97.70;;;;;;4147408;28;20042;-89
2020/12/29 05:58:01;;;;;;;0.10;0.10;;;5.40;97.70;;;;;;4136595;28;20525;-91
2020/12/29 06:00:05;;;;;;;0.10;0.10;;;5.50;97.70;;;;;;4130126;28;20050;-91
2020/12/29 06:02:08;;;;;;;0.13;0.13;;;5.50;97.70;;;;;;4167791;28;20059;-91
2020/12/29 06:04:09;;;;;;;0.10;0.10;;;5.40;97.70;;;;;;4144892;28;20058;-90
2020/12/29 06:06:11;;;;;;;0.10;0.10;;;5.50;97.70;;;;;;4133207;28;20042;-91
2020/12/29 06:08:12;;;;;;;0.15;0.15;;;5.50;97.70;;;;;;4129951;28;20515;-90
2020/12/29 06:10:13;;;;;;;0.10;0.10;;;5.40;97.60;;;;;;4129802;28;20534;-90
2020/12/29 06:12:17;;;;;;;0.20;0.20;;;5.50;97.60;;;;;;4138782;28;20054;-87
2020/12/29 06:14:25;;;;;;;0.32;0.20;;;5.50;97.60;;;;;;4129872;28;20050;-90
2020/12/29 06:16:27;;;;;;;0.10;0.10;;;5.60;97.50;;;;;;4148170;28;20045;-88
2020/12/29 06:18:33;;;;;;;0.52;0.52;;;5.60;97.40;;;;;;4148741;28;20466;-89
2020/12/29 06:20:45;;;;;;;3.63;1.55;;;5.60;97.30;;;;;;4132978;28;20046;-91
2020/12/29 06:22:46;;;;;;;0.10;0.10;;;5.60;97.30;;;;;;4146071;28;20049;-90
2020/12/29 06:24:47;;;;;;;0.10;0.10;;;5.70;97.30;;;;;;4168136;28;20049;-92
2020/12/29 06:26:49;;;;;;;0.10;0.10;;;5.60;97.20;;;;;;4165535;28;20532;-90
2020/12/29 06:28:52;;;;;;;0.40;0.30;;;5.70;97.30;;;;;;4147048;28;20056;-89
2020/12/29 06:30:56;;;;;;;0.10;0.10;;;5.70;97.20;;;;;;4157101;28;20141;-90
2020/12/29 06:32:57;;;;;;;0.10;0.10;;;5.70;97.20;;;;;;4149592;28;20096;-91
2020/12/29 06:35:00;;;;;;;0.10;0.10;;;5.70;97.10;;;;;;4145141;28;20052;-89
2020/12/29 06:37:08;;;;;;;0.20;0.20;;;5.70;97.00;;;;;;4146467;28;20189;-89
2020/12/29 06:39:09;;;;;;;0.15;0.15;;;5.70;96.90;;;;;;4148922;28;20077;-88
2020/12/29 06:41:11;;;;;;;0.90;0.38;;;5.80;96.80;;;;;;4155377;28;20045;-88
2020/12/29 06:43:12;;;;;;;0.10;0.10;;;5.70;96.90;;;;;;4142607;28;20136;-89
2020/12/29 06:45:14;;;;;;;0.20;0.20;;;5.70;96.80;;;;;;4161614;28;20042;-88
2020/12/29 06:47:15;;;;;;;0.10;0.10;;;5.70;96.80;;;;;;4164824;28;20124;-90
2020/12/29 06:49:20;;;;;;;0.10;0.10;;;5.70;96.80;;;;;;4130740;28;20056;-89
2020/12/29 06:51:21;;;;;;;0.10;0.10;;;5.80;96.80;;;;;;4148289;28;20562;-90
2020/12/29 06:53:23;;;;;;;0.17;0.17;;;5.80;96.60;;;;;;4136389;28;20057;-89
2020/12/29 06:55:29;;;;;;;0.10;0.10;;;5.80;96.60;;;;;;4163428;28;20081;-90
2020/12/29 06:57:36;;;;;;;;;;;5.80;96.60;;;;;;4164885;28;20056;-90
2020/12/29 06:59:38;;;;;;;0.20;0.20;;;5.80;96.80;;;;;;4166407;28;19921;-90
2020/12/29 07:01:40;;;;;;;0.20;0.20;;;5.80;96.50;;;;;;4164171;28;20041;-91
2020/12/29 07:03:41;;;;;;;0.10;0.10;;;5.80;96.40;;;;;;4133271;28;20049;-90
2020/12/29 07:05:42;;;;;;;0.10;0.10;;;5.80;96.50;;;;;;4170273;28;20052;-91
2020/12/29 07:07:57;;;;;;;0.20;0.20;;;5.80;96.50;;;;;;4147698;28;20120;-91
2020/12/29 07:09:59;;;;;;;0.10;0.10;;;5.80;96.40;;;;;;4160446;28;20089;-90
2020/12/29 07:12:07;;;;;;;0.20;0.20;;;5.90;96.20;;;;;;4164323;28;20145;-91
2020/12/29 07:14:09;;;;;;;0.10;0.10;;;5.80;96.20;;;;;;4145238;28;20074;-90
2020/12/29 07:16:13;;;;;;;0.13;0.13;;;5.90;96.10;;;;;;4163004;28;20072;-90
2020/12/29 07:18:24;;;;;;;0.20;0.20;;;5.80;96.20;;;;;;4163048;28;20052;-90
2020/12/29 07:20:33;;;;;;;0.20;0.20;;;5.80;96.20;;;;;;4146889;28;20057;-91
2020/12/29 07:22:34;;;;;;;0.10;0.10;;;5.80;96.50;;;;;;4138729;28;20593;-90
2020/12/29 07:24:40;;;;;;;0.10;0.10;;;5.80;96.40;;;;;;4133119;28;20052;-92
2020/12/29 07:26:41;;;;;;;0.10;0.10;;;5.90;96.40;;;;;;4151546;28;20068;-90
2020/12/29 07:28:42;;;;;;;0.10;0.10;;;5.90;96.50;;;;;;4137225;28;20061;-91
2020/12/29 07:30:44;;;;;;;0.10;0.10;;;5.80;96.40;;;;;;4146289;28;20058;-92
2020/12/29 07:32:45;;;;;;;0.10;0.10;;;5.80;96.50;;;;;;4125430;28;20318;-90
2020/12/29 07:34:47;;;;;;;0.10;0.10;;;5.80;96.70;;;;;;4143968;28;20056;-91
2020/12/29 07:36:48;;;;;;;0.40;0.40;;;5.80;96.60;;;;;;4138218;28;20343;-92
2020/12/29 07:38:50;;;;;;;0.65;0.65;;;5.80;96.60;;;;;;4133514;28;20185;-92
2020/12/29 07:40:52;;;;;;;0.10;0.10;;;5.80;96.70;;;;;;4128790;28;20053;-89
2020/12/29 07:42:53;;;;;;;0.05;0.05;;;5.80;96.70;;;;;;4136495;28;20509;-93
2020/12/29 07:44:54;;;;;;;0.20;0.20;;;5.80;96.60;;;;;;4134170;28;20050;-91
2020/12/29 07:46:56;;;;;;;0.90;0.90;;;5.80;96.80;;;;;;4146865;28;20494;-93
2020/12/29 07:48:59;;;;;;;0.10;0.10;;;5.80;96.60;;;;;;4150626;28;20490;-91
2020/12/29 07:51:00;;;;;;;0.10;0.10;;;5.80;96.60;;;;;;4154115;28;20069;-92
2020/12/29 07:53:05;;;;;;;0.10;0.10;;;5.80;96.60;;;;;;4145609;28;20453;-87
2020/12/29 07:55:15;;;;;;;0.10;0.10;;;5.80;96.50;;;;;;4139297;28;20061;-86
2020/12/29 07:57:16;;;;;;;0.10;0.10;;;5.80;96.40;;;;;;4117218;28;20457;-85
2020/12/29 07:59:21;;;;;;;0.10;0.10;;;5.80;96.40;;;;;;4133174;28;20062;-84
2020/12/29 08:01:23;;;;;;;0.10;0.10;;;5.90;96.50;;;;;;4154785;28;20421;-84
2020/12/29 08:03:24;;;;;;;0.20;0.20;;;5.80;96.30;;;;;;4125709;28;20058;-86
2020/12/29 08:05:26;;;;;;;0.10;0.10;;;5.90;96.30;;;;;;4132034;28;20118;-86
2020/12/29 08:07:32;;;;;;;0.10;0.10;;;5.90;96.10;;;;;;4132014;28;20069;-84
2020/12/29 08:09:45;;;;;;;0.10;0.10;;;5.90;95.90;;;;;;4133934;28;20047;-86
2020/12/29 08:11:47;;;;;;;0.10;0.10;;;5.90;96.00;;;;;;4132039;28;20054;-88
2020/12/29 08:13:48;;;;;;;0.63;0.32;;;5.90;95.90;;;;;;4127816;28;20132;-85
2020/12/29 08:15:49;;;;;;;0.10;0.10;;;6.00;96.00;;;;;;4136914;28;20526;-85
2020/12/29 08:18:10;;;;;;;0.20;0.20;;;6.00;96.00;;;;;;4131962;28;20056;-86
2020/12/29 08:20:11;;;;;;;0.10;0.10;;;6.00;96.10;;;;;;4131390;28;20061;-85
2020/12/29 08:22:13;;;;;;;0.10;0.10;;;6.00;96.00;;;;;;4120993;28;20073;-85
2020/12/29 08:24:14;;;;;;;0.20;0.20;;;6.00;96.00;;;;;;4133824;28;20132;-87
2020/12/29 08:26:15;;;;;;;0.10;0.10;;;6.00;96.20;;;;;;4131092;28;20583;-85
2020/12/29 08:28:16;;;;;;;0.20;0.10;;;6.00;96.00;;;;;;4156074;28;20136;-86
2020/12/29 08:30:18;;;;;;;0.10;0.10;;;6.00;95.90;;;;;;4163051;28;20433;-86
2020/12/29 08:32:21;;;;;;;0.28;0.28;;;6.10;95.80;;;;;;4146688;28;20052;-85
2020/12/29 08:34:22;;;;;;;0.15;0.15;;;6.10;95.90;;;;;;4147385;28;20591;-88
2020/12/29 08:36:27;;;;;;;0.10;0.10;;;6.10;95.70;;;;;;4131226;28;20055;-85
2020/12/29 08:38:41;;;;;;;0.60;0.60;;;6.10;95.80;;;;;;4147119;28;20158;-85
2020/12/29 08:40:47;;;;;;;0.20;0.20;;;6.10;95.70;;;;;;4163050;28;20132;-85
2020/12/29 08:42:51;;;;;;;0.10;0.10;;;6.10;95.60;;;;;;4147041;28;20050;-85
2020/12/29 08:44:53;;;;;;;0.10;0.10;;;6.10;95.60;;;;;;4131504;28;20202;-85
2020/12/29 08:46:54;;;;;;;0.10;0.10;;;6.10;95.70;;;;;;4130751;28;20054;-85
2020/12/29 08:48:59;;;;;;;0.15;0.15;;;6.10;95.70;;;;;;4130899;28;20137;-85
2020/12/29 08:51:15;;;;;;;0.10;0.10;;;6.10;95.50;;;;;;4131535;28;20057;-85
2020/12/29 08:53:16;;;;;;;0.25;0.25;;;6.10;95.40;;;;;;4153695;28;20502;-85
2020/12/29 08:55:25;;;;;;;0.38;0.38;;;6.10;95.20;;;;;;4141512;28;20050;-85
2020/12/29 08:57:27;;;;;;;0.10;0.10;;;6.10;95.40;;;;;;4149616;28;20054;-85
2020/12/29 08:59:36;;;;;;;3.00;0.40;;;6.10;95.40;;;;;;4178218;28;20521;-86
2020/12/29 09:01:40;;;;;;;0.40;0.40;;;6.10;95.30;;;;;;4150800;28;20140;-86
2020/12/29 09:03:41;;;;;;;0.30;0.30;;;6.20;95.20;;;;;;4135148;28;20133;-85
2020/12/29 09:05:58;;;;;;;0.20;0.20;;;6.10;95.00;;;;;;4146852;28;20061;-92
2020/12/29 09:07:59;;;;;;;0.40;0.40;;;6.20;94.80;;;;;;4151915;28;20027;-86
2020/12/29 09:10:07;;;;;;;0.10;0.10;;;6.30;94.50;;;;;;4174005;28;20105;-87
2020/12/29 09:12:13;;;;;;;0.10;0.10;;;6.30;94.30;;;;;;4163496;28;20092;-85
2020/12/29 09:14:22;;;;;;;0.10;0.10;;;6.40;93.80;;;;;;4146427;28;20114;-84
2020/12/29 09:16:23;;;;;;;1.08;0.28;;;6.50;93.40;;;;;;4163083;28;20051;-85
2020/12/29 09:18:25;;;;;;;0.47;0.47;;;6.50;93.50;;;;;;4163518;28;20049;-85
2020/12/29 09:20:29;;;;;;;0.28;0.20;;;6.60;93.20;;;;;;4158802;28;20554;-86
2020/12/29 09:22:31;;;;;;;0.20;0.20;;;6.60;92.80;;;;;;4159363;28;20108;-86
2020/12/29 09:24:32;;;;;;;0.10;0.10;;;6.70;92.90;;;;;;4159640;28;20058;-85
2020/12/29 09:26:34;;;;;;;0.20;0.20;;;6.70;92.70;;;;;;4146720;28;20054;-85
2020/12/29 09:28:35;;;;;;;0.10;0.10;;;6.80;92.80;;;;;;4152015;28;20084;-85
2020/12/29 09:30:37;;;;;;;0.73;0.73;;;6.80;92.40;;;;;;4134327;28;20048;-85
2020/12/29 09:32:38;;;;;;;0.10;0.10;;;6.80;92.30;;;;;;4146850;28;20052;-85
2020/12/29 09:34:40;;;;;;;0.68;0.68;;;6.80;92.30;;;;;;4159283;28;20136;-85
2020/12/29 09:36:41;;;;;;;0.65;0.20;;;6.90;91.90;;;;;;4163110;28;20454;-84
2020/12/29 09:38:42;;;;;;;0.10;0.10;;;6.90;92.20;;;;;;4151253;28;20509;-86
2020/12/29 09:40:45;;;;;;;1.10;0.30;;;6.90;92.30;;;;;;4143024;28;20045;-85
2020/12/29 09:42:46;;;;;;;1.00;0.45;;;7.00;92.10;;;;;;4146333;28;20137;-86
2020/12/29 09:44:48;;;;;;;1.15;0.20;;;7.00;92.00;;;;;;4131023;28;20406;-85
2020/12/29 09:46:49;;;;;;;0.20;0.20;;;7.00;91.60;;;;;;4154441;28;20045;-86
2020/12/29 09:48:50;;;;;;;0.20;0.20;;;7.10;91.50;;;;;;4151544;28;20055;-86
2020/12/29 09:50:52;;;;;;;2.20;0.50;;;7.20;91.50;;;;;;4163276;28;20136;-87
2020/12/29 09:52:53;;;;;;;0.10;0.10;;;7.30;91.50;;;;;;4165863;28;20062;-84
2020/12/29 09:54:54;;;;;;;0.40;0.25;;;7.30;91.40;;;;;;4138771;28;20050;-85
2020/12/29 09:56:56;;;;;;;0.10;0.10;;;7.30;91.20;;;;;;4150288;28;20068;-85
2020/12/29 09:58:57;;;;;;;0.20;0.20;;;7.40;91.00;;;;;;4159341;28;20065;-86
2020/12/29 10:00:59;;;;;;;0.85;0.32;;;7.40;90.90;;;;;;4165589;28;20139;-85
2020/12/29 10:03:00;;;;;;;0.20;0.20;;;7.60;90.70;;;;;;4164768;28;20144;-85
2020/12/29 10:05:01;;;;;;;0.60;0.30;;;7.60;90.40;;;;;;4142430;28;20050;-86
2020/12/29 10:07:03;;;;;;;0.10;0.10;;;7.60;90.30;;;;;;4165907;28;20053;-85
2020/12/29 10:09:04;;;;;;;0.25;0.25;;;7.70;90.40;;;;;;4135111;28;20145;-85
2020/12/29 10:11:06;;;;;;;0.20;0.20;;;7.80;90.30;;;;;;4146107;28;20064;-86
2020/12/29 10:13:07;;;;;;;0.10;0.10;;;7.90;90.60;;;;;;4137051;28;20062;-85
2020/12/29 10:15:09;;;;;;;0.22;0.20;;;7.90;90.30;;;;;;4149665;28;20419;-85
2020/12/29 10:17:10;;;;;;;0.15;0.15;;;7.90;90.00;;;;;;4144903;28;20125;-85
2020/12/29 10:19:12;;;;;;;0.22;0.22;;;8.00;90.10;;;;;;4149471;28;20138;-85
2020/12/29 10:21:13;;;;;;;0.20;0.20;;;8.10;88.70;;;;;;4142927;28;20541;-85
2020/12/29 10:23:15;;;;;;;0.20;0.20;;;8.10;89.10;;;;;;4129487;28;20085;-85
2020/12/29 10:25:16;;;;;;;1.42;0.35;;;8.20;88.90;;;;;;4149247;28;20053;-87
2020/12/29 10:27:17;;;;;;;0.25;0.25;;;8.20;89.40;;;;;;4133957;28;20086;-85
2020/12/29 10:29:19;;;;;;;1.10;0.40;;;8.30;88.80;;;;;;4148246;28;20058;-86
2020/12/29 10:31:21;;;;;;;0.75;0.75;;;8.40;88.80;;;;;;4134961;28;20050;-85
2020/12/29 10:33:22;;;;;;;0.40;0.32;;;8.40;88.00;;;;;;4151041;28;20065;-84
2020/12/29 10:35:23;;;;;;;0.22;0.22;;;8.50;87.40;;;;;;4150570;28;20141;-85
2020/12/29 10:37:25;;;;;;;0.30;0.30;;;8.60;86.90;;;;;;4141576;28;20120;-85
2020/12/29 10:39:27;;;;;;;0.10;0.10;;;8.60;84.50;;;;;;4149676;28;20562;-86
2020/12/29 10:41:29;;;;;;;0.20;0.20;;;8.70;84.70;;;;;;4149979;28;20056;-85
2020/12/29 10:43:31;;;;;;;0.20;0.20;;;8.80;84.70;;;;;;4148706;28;20081;-85
2020/12/29 10:45:32;;;;;;;0.80;0.80;;;8.80;83.80;;;;;;4148847;28;20085;-85
2020/12/29 10:47:33;;;;;;;0.10;0.10;;;9.00;84.10;;;;;;4165880;28;20071;-86